createdAt,value
2022-11-29T00:01:52.208Z,21.55
2022-11-29T00:07:16.125Z,22.85
2022-11-29T00:12:41.148Z,23.30
2022-11-29T00:18:05.176Z,19.98
2022-11-29T00:23:28.819Z,21.83
2022-11-29T00:28:54.135Z,19.02
2022-11-29T00:34:17.956Z,20.33
2022-11-29T00:39:41.781Z,20.63
2022-11-29T00:45:08.041Z,18.75
2022-11-29T00:50:31.828Z,22.45
2022-11-29T00:55:56.176Z,22.30
2022-11-29T01:01:21.365Z,20.48
2022-11-29T01:06:45.092Z,18.85
2022-11-29T01:12:09.052Z,20.50
2022-11-29T01:17:35.994Z,19.23
2022-11-29T01:23:00.145Z,17.95
2022-11-29T01:28:23.815Z,18.40
2022-11-29T01:33:48.862Z,20.40
2022-11-29T01:39:12.831Z,19.90
2022-11-29T01:45:03.068Z,17.42
2022-11-29T01:50:28.140Z,17.60
2022-11-29T01:55:56.617Z,18.45
2022-11-29T02:01:20.506Z,19.15
2022-11-29T02:06:46.830Z,20.42
2022-11-29T02:12:22.406Z,19.67
2022-11-29T02:17:59.402Z,17.65
2022-11-29T02:24:02.694Z,19.45
2022-11-29T02:29:42.044Z,18.98
2022-11-29T02:35:20.606Z,17.17
2022-11-29T02:41:06.833Z,18.23
2022-11-29T02:46:53.219Z,15.23
2022-11-29T02:52:23.505Z,18.25
2022-11-29T02:57:56.366Z,16.73
2022-11-29T03:03:26.095Z,16.00
2022-11-29T03:08:58.629Z,16.73
2022-11-29T03:14:26.187Z,16.13
2022-11-29T03:20:05.038Z,15.32
2022-11-29T03:25:35.053Z,15.18
2022-11-29T03:31:05.230Z,14.82
2022-11-29T03:36:37.989Z,13.95
2022-11-29T03:42:07.754Z,14.35
2022-11-29T03:47:36.433Z,14.13
2022-11-29T03:53:06.218Z,13.68
2022-11-29T03:58:53.914Z,14.85
2022-11-29T04:04:50.037Z,15.00
2022-11-29T04:10:27.189Z,16.30
2022-11-29T04:16:19.571Z,15.52
2022-11-29T04:27:31.342Z,12.90
2022-11-29T04:33:30.264Z,13.98
2022-11-29T04:39:34.984Z,16.08
2022-11-29T04:45:31.209Z,18.88
2022-11-29T04:51:07.271Z,13.98
2022-11-29T04:56:41.418Z,16.67
2022-11-29T05:02:15.032Z,15.82
2022-11-29T05:07:49.292Z,15.68
2022-11-29T05:13:20.065Z,17.15
2022-11-29T05:18:59.519Z,18.13
2022-11-29T05:24:36.334Z,18.88
2022-11-29T05:30:05.694Z,19.88
2022-11-29T05:35:50.368Z,18.67
2022-11-29T05:41:28.516Z,17.75
2022-11-29T05:46:56.809Z,16.40
2022-11-29T05:52:25.433Z,16.73
2022-11-29T05:57:57.855Z,16.92
2022-11-29T06:03:30.029Z,16.77
2022-11-29T06:08:58.510Z,17.70
2022-11-29T06:14:40.894Z,17.40
2022-11-29T06:20:21.019Z,14.70
2022-11-29T06:26:03.535Z,14.98
2022-11-29T06:31:33.671Z,17.65
2022-11-29T06:37:05.277Z,16.52
2022-11-29T06:42:28.997Z,18.05
2022-11-29T06:47:59.732Z,18.50
2022-11-29T06:53:29.438Z,18.35
2022-11-29T06:59:02.768Z,18.05
2022-11-29T07:04:46.402Z,15.52
2022-11-29T07:10:16.354Z,15.95
2022-11-29T07:15:41.932Z,16.30
2022-11-29T07:21:17.987Z,15.77
2022-11-29T07:26:47.581Z,15.63
2022-11-29T07:32:23.547Z,18.13
2022-11-29T07:38:00.758Z,16.67
2022-11-29T07:43:37.129Z,18.17
2022-11-29T07:49:00.780Z,17.42
2022-11-29T07:54:25.839Z,16.85
2022-11-29T07:59:50.151Z,18.13
2022-11-29T08:05:13.988Z,16.63
2022-11-29T08:10:39.791Z,17.70
2022-11-29T08:16:03.617Z,15.23
2022-11-29T08:21:27.445Z,18.17
2022-11-29T08:26:52.463Z,17.67
2022-11-29T08:32:16.190Z,17.48
2022-11-29T08:37:39.842Z,17.92
2022-11-29T08:43:04.884Z,18.00
2022-11-29T08:48:28.659Z,18.77
2022-11-29T08:53:52.766Z,18.40
2022-11-29T08:59:17.776Z,16.17
2022-11-29T09:04:41.443Z,18.55
2022-11-29T09:10:08.166Z,17.95
2022-11-29T09:15:33.273Z,16.20
2022-11-29T09:20:56.909Z,18.40
2022-11-29T09:26:21.016Z,17.25
2022-11-29T09:31:46.213Z,17.95
2022-11-29T09:37:09.899Z,18.33
2022-11-29T09:42:45.728Z,19.48
2022-11-29T09:48:29.505Z,14.75
2022-11-29T09:54:06.787Z,17.15
2022-11-29T09:59:37.314Z,16.60
2022-11-29T10:05:07.663Z,17.05
2022-11-29T10:10:40.875Z,17.58
2022-11-29T10:16:12.977Z,18.30
2022-11-29T10:21:42.594Z,18.30
2022-11-29T10:27:13.725Z,17.55
2022-11-29T10:32:37.449Z,18.63
2022-11-29T10:38:29.736Z,18.42
2022-11-29T10:43:50.452Z,18.30
2022-11-29T10:49:16.593Z,17.00
2022-11-29T10:54:43.843Z,18.40
2022-11-29T11:00:11.456Z,18.88
2022-11-29T11:05:36.439Z,17.23
2022-11-29T11:11:03.056Z,18.92
2022-11-29T11:16:29.705Z,16.95
2022-11-29T11:21:57.278Z,17.83
2022-11-29T11:27:31.575Z,17.83
2022-11-29T11:33:08.895Z,18.70
2022-11-29T11:38:33.314Z,16.90
2022-11-29T11:44:00.814Z,18.90
2022-11-29T11:49:30.440Z,18.00
2022-11-29T11:54:56.932Z,17.42
2022-11-29T12:01:02.790Z,17.77
2022-11-29T12:06:31.262Z,17.73
2022-11-29T12:12:01.384Z,13.50
2022-11-29T12:17:33.352Z,17.95
2022-11-29T12:28:30.967Z,18.73
2022-11-29T12:34:11.217Z,19.30
2022-11-29T12:39:50.733Z,18.25
2022-11-29T12:45:26.881Z,20.98
2022-11-29T12:51:02.375Z,19.70
2022-11-29T12:56:29.246Z,21.27
2022-11-29T13:02:15.169Z,21.10
2022-11-29T13:07:51.366Z,19.88
2022-11-29T13:13:24.706Z,20.17
2022-11-29T13:18:56.312Z,20.15
2022-11-29T13:24:25.668Z,22.10
2022-11-29T13:29:50.156Z,21.38
2022-11-29T13:35:31.541Z,23.42
2022-11-29T13:41:00.853Z,24.08
2022-11-29T13:46:29.384Z,21.55
2022-11-29T13:52:05.928Z,21.40
2022-11-29T13:58:14.375Z,23.45
2022-11-29T14:03:38.470Z,22.08
2022-11-29T14:09:34.857Z,34.17
2022-11-29T14:15:02.554Z,22.67
2022-11-29T14:20:57.027Z,23.20
2022-11-29T14:26:29.166Z,22.10
2022-11-29T14:31:56.238Z,21.95
2022-11-29T14:37:41.734Z,23.35
2022-11-29T14:43:17.630Z,24.65
2022-11-29T14:48:47.930Z,25.13
2022-11-29T14:54:18.360Z,22.10
2022-11-29T14:59:49.645Z,23.40
2022-11-29T15:05:19.682Z,24.35
2022-11-29T15:10:49.350Z,23.52
2022-11-29T15:16:24.253Z,25.60
2022-11-29T15:21:57.180Z,23.95
2022-11-29T15:27:21.753Z,26.40
2022-11-29T15:32:45.426Z,24.33
2022-11-29T15:38:18.272Z,26.00
2022-11-29T15:43:42.395Z,27.45
2022-11-29T15:49:19.443Z,26.42
2022-11-29T15:54:46.909Z,24.35
2022-11-29T16:00:20.010Z,25.88
2022-11-29T16:05:43.959Z,26.45
2022-11-29T16:11:16.416Z,27.77
2022-11-29T16:16:41.483Z,31.63
2022-11-29T16:22:15.128Z,25.90
2022-11-29T16:27:40.220Z,26.75
2022-11-29T16:33:04.296Z,26.77
2022-11-29T16:38:27.944Z,27.88
2022-11-29T16:43:56.020Z,24.20
2022-11-29T16:49:35.398Z,22.90
2022-11-29T16:54:59.248Z,23.45
2022-11-29T17:00:29.805Z,24.08
2022-11-29T17:05:54.115Z,23.55
2022-11-29T17:11:18.491Z,23.90
2022-11-29T17:16:43.589Z,23.80
2022-11-29T17:22:07.292Z,23.80
2022-11-29T17:27:31.028Z,24.20
2022-11-29T17:32:56.060Z,25.35
2022-11-29T17:38:19.757Z,24.50
2022-11-29T17:43:43.603Z,25.73
2022-11-29T17:49:10.510Z,30.40
2022-11-29T17:54:35.991Z,27.65
2022-11-29T17:59:59.730Z,26.45
2022-11-29T18:05:25.658Z,22.90
2022-11-29T18:10:51.632Z,24.52
2022-11-29T18:16:17.146Z,23.10
2022-11-29T18:21:42.279Z,25.05
2022-11-29T18:27:05.921Z,25.35
2022-11-29T18:32:29.744Z,26.25
2022-11-29T18:38:14.539Z,24.58
2022-11-29T18:43:40.120Z,26.30
2022-11-29T18:49:05.385Z,29.30
2022-11-29T18:54:31.028Z,27.70
2022-11-29T18:59:54.682Z,27.42
2022-11-29T19:05:18.498Z,25.30
2022-11-29T19:10:44.742Z,25.38
2022-11-29T19:16:13.062Z,26.20
2022-11-29T19:21:36.963Z,23.83
2022-11-29T19:27:03.277Z,25.83
2022-11-29T19:32:26.969Z,26.85
2022-11-29T19:37:50.658Z,27.02
2022-11-29T19:43:15.737Z,25.45
2022-11-29T19:48:39.639Z,25.58
2022-11-29T19:54:05.553Z,23.35
2022-11-29T19:59:30.585Z,28.40
2022-11-29T20:04:54.529Z,28.02
2022-11-29T20:10:20.443Z,25.85
2022-11-29T20:15:45.492Z,28.33
2022-11-29T20:21:10.841Z,29.80
2022-11-29T20:26:36.882Z,22.73
2022-11-29T20:32:02.013Z,40.55
2022-11-29T20:37:37.859Z,29.38
2022-11-29T20:43:14.726Z,33.15
2022-11-29T20:48:40.317Z,25.83
2022-11-29T20:54:04.798Z,20.25
2022-11-29T20:59:28.416Z,18.65
2022-11-29T21:04:53.411Z,17.95
2022-11-29T21:10:17.301Z,16.90
2022-11-29T21:15:41.552Z,17.25
2022-11-29T21:21:18.955Z,17.17
2022-11-29T21:26:45.843Z,14.82
2022-11-29T21:32:22.092Z,15.57
2022-11-29T21:37:47.822Z,16.23
2022-11-29T21:43:11.614Z,15.20
2022-11-29T21:48:37.953Z,15.75
2022-11-29T21:54:06.893Z,15.15
2022-11-29T21:59:30.678Z,15.68
2022-11-29T22:04:54.446Z,14.98
2022-11-29T22:10:19.658Z,15.45
2022-11-29T22:15:43.398Z,14.43
2022-11-29T22:21:08.462Z,13.90
2022-11-29T22:26:33.537Z,13.80
2022-11-29T22:31:59.361Z,12.85
2022-11-29T22:37:23.057Z,14.52
2022-11-29T22:42:50.468Z,12.45
2022-11-29T22:48:14.177Z,11.77
2022-11-29T22:53:39.428Z,12.48
2022-11-29T22:59:04.778Z,12.85
2022-11-29T23:04:28.451Z,11.85
2022-11-29T23:09:52.262Z,10.55
2022-11-29T23:15:17.459Z,12.02
2022-11-29T23:20:41.141Z,11.18
2022-11-29T23:26:06.281Z,11.98
2022-11-29T23:31:31.792Z,11.02
2022-11-29T23:36:55.548Z,11.85
2022-11-29T23:42:19.206Z,11.13
2022-11-29T23:47:44.216Z,10.95
2022-11-29T23:53:07.866Z,10.77
2022-11-29T23:58:32.437Z,11.00
